Time;durP1;ratioP1;P1;durP2;ratioP2;P2;SDS_P1;SDS_P2;PMS_P1;PMS_P2;Temp;Humidity;BMP_temperature;BMP_pressure;BME280_temperature;BME280_humidity;BME280_pressure;Samples;Min_cycle;Max_cycle;Signal;HPM_P1;HPM_P2
2023/01/02 00:01:09;;;;;;;;;;;;;;;;;;4451070;32;19940;-78
2023/01/02 00:03:34;;;;;;;;;;;;;;;;;;4451941;32;19948;-78
2023/01/02 00:05:59;;;;;;;;;;;;;;;;;;4451344;32;20101;-78
2023/01/02 00:08:24;;;;;;;;;;;;;;;;;;4452471;32;19940;-77
2023/01/02 00:10:49;;;;;;;;;;;;;;;;;;4450504;32;19987;-77
2023/01/02 00:13:14;;;;;;;;;;;;;;;;;;4452605;32;19932;-78
2023/01/02 00:15:39;;;;;;;;;;;;;;;;;;4453580;32;19973;-77
2023/01/02 00:18:04;;;;;;;;;;;;;;;;;;4452219;32;19976;-78
2023/01/02 00:20:29;;;;;;;;;;;;;;;;;;4450520;32;19969;-77
2023/01/02 00:22:55;;;;;;;;;;;;;;;;;;4451754;32;19951;-77
2023/01/02 00:25:20;;;;;;;;;;;;;;;;;;4451624;32;19936;-78
2023/01/02 00:27:45;;;;;;;;;;;;;;;;;;4450482;32;19948;-78
2023/01/02 00:30:10;;;;;;;;;;;;;;;;;;4451455;32;19946;-78
2023/01/02 00:32:35;;;;;;;;;;;;;;;;;;4436748;32;19937;-78
2023/01/02 00:35:00;;;;;;;;;;;;;;;;;;4452174;32;19948;-78
2023/01/02 00:37:25;;;;;;;;;;;;;;;;;;4451735;32;20312;-78
2023/01/02 00:39:50;;;;;;;;;;;;;;;;;;4452609;32;19936;-78
2023/01/02 00:42:15;;;;;;;;;;;;;;;;;;4439075;32;19951;-78
2023/01/02 00:44:40;;;;;;;;;;;;;;;;;;4436814;32;19944;-77
2023/01/02 00:47:06;;;;;;;;;;;;;;;;;;4438040;32;19969;-77
2023/01/02 00:49:31;;;;;;;;;;;;;;;;;;4437194;32;20234;-77
2023/01/02 00:51:56;;;;;;;;;;;;;;;;;;4451141;32;19963;-77
2023/01/02 00:54:21;;;;;;;;;;;;;;;;;;4453578;32;20270;-77
2023/01/02 00:56:46;;;;;;;;;;;;;;;;;;4452609;32;20043;-78
2023/01/02 00:59:11;;;;;;;;;;;;;;;;;;4439200;32;19975;-78
2023/01/02 01:01:36;;;;;;;;;;;;;;;;;;4437544;32;19945;-78
2023/01/02 01:04:01;;;;;;;;;;;;;;;;;;4437809;32;19969;-78
2023/01/02 01:06:26;;;;;;;;;;;;;;;;;;4437625;32;19997;-78
2023/01/02 01:08:51;;;;;;;;;;;;;;;;;;4438492;32;19932;-77
2023/01/02 01:11:17;;;;;;;;;;;;;;;;;;4451361;32;19932;-78
2023/01/02 01:13:42;;;;;;;;;;;;;;;;;;4452493;32;19984;-78
2023/01/02 01:16:07;;;;;;;;;;;;;;;;;;4437424;32;19976;-78
2023/01/02 01:18:32;;;;;;;;;;;;;;;;;;4438414;32;19944;-78
2023/01/02 01:20:57;;;;;;;;;;;;;;;;;;4452552;32;19949;-78
2023/01/02 01:23:22;;;;;;;;;;;;;;;;;;4451088;32;19979;-78
2023/01/02 01:25:47;;;;;;;;;;;;;;;;;;4452208;32;20289;-78
2023/01/02 01:28:12;;;;;;;;;;;;;;;;;;4450762;32;19960;-77
2023/01/02 01:30:38;;;;;;;;;;;;;;;;;;4441469;32;19965;-77
2023/01/02 01:33:03;;;;;;;;;;;;;;;;;;4451089;32;19975;-77
2023/01/02 01:35:28;;;;;;;;;;;;;;;;;;4436784;32;19988;-78
2023/01/02 01:37:53;;;;;;;;;;;;;;;;;;4451977;32;19941;-78
2023/01/02 01:40:18;;;;;;;;;;;;;;;;;;4437482;32;20303;-77
2023/01/02 01:42:43;;;;;;;;;;;;;;;;;;4436374;32;19992;-77
2023/01/02 01:45:08;;;;;;;;;;;;;;;;;;4436218;32;19964;-77
2023/01/02 01:47:33;;;;;;;;;;;;;;;;;;4450916;32;20406;-78
2023/01/02 01:49:59;;;;;;;;;;;;;;;;;;4452840;32;19960;-78
2023/01/02 01:52:24;;;;;;;;;;;;;;;;;;4451984;32;19940;-77
2023/01/02 01:54:49;;;;;;;;;;;;;;;;;;4436967;32;20024;-78
2023/01/02 01:57:14;;;;;;;;;;;;;;;;;;4437004;32;20322;-77
2023/01/02 01:59:39;;;;;;;;;;;;;;;;;;4437730;32;20476;-77
2023/01/02 02:02:04;;;;;;;;;;;;;;;;;;4449253;32;19951;-77
2023/01/02 02:04:29;;;;;;;;;;;;;;;;;;4435877;32;19972;-77
2023/01/02 02:06:54;;;;;;;;;;;;;;;;;;4450754;32;19946;-77
2023/01/02 02:09:19;;;;;;;;;;;;;;;;;;4449017;32;20021;-77
2023/01/02 02:11:44;;;;;;;;;;;;;;;;;;4450194;32;19932;-77
2023/01/02 02:14:09;;;;;;;;;;;;;;;;;;4437471;32;20322;-77
2023/01/02 02:16:34;;;;;;;;;;;;;;;;;;4450003;32;20310;-76
2023/01/02 02:19:00;;;;;;;;;;;;;;;;;;4436714;32;19956;-76
2023/01/02 02:21:25;;;;;;;;;;;;;;;;;;4449863;32;19955;-76
2023/01/02 02:23:50;;;;;;;;;;;;;;;;;;4437172;32;20399;-77
2023/01/02 02:26:15;;;;;;;;;;;;;;;;;;4450751;32;20204;-77
2023/01/02 02:28:40;;;;;;;;;;;;;;;;;;4450186;32;19967;-77
2023/01/02 02:31:05;;;;;;;;;;;;;;;;;;4451255;32;19932;-77
2023/01/02 02:33:30;;;;;;;;;;;;;;;;;;4450132;32;19932;-77
2023/01/02 02:35:56;;;;;;;;;;;;;;;;;;4450283;32;19992;-77
2023/01/02 02:38:21;;;;;;;;;;;;;;;;;;4436510;32;19936;-77
2023/01/02 02:40:46;;;;;;;;;;;;;;;;;;4435389;32;19951;-78
2023/01/02 02:43:11;;;;;;;;;;;;;;;;;;4450251;32;19940;-77
2023/01/02 02:45:37;;;;;;;;;;;;;;;;;;4451593;32;19988;-78
2023/01/02 02:48:02;;;;;;;;;;;;;;;;;;4435570;32;19959;-78
2023/01/02 02:50:27;;;;;;;;;;;;;;;;;;4451397;32;19932;-78
2023/01/02 02:52:52;;;;;;;;;;;;;;;;;;4452511;32;19944;-78
2023/01/02 02:55:17;;;;;;;;;;;;;;;;;;4436835;32;19958;-78
2023/01/02 02:57:42;;;;;;;;;;;;;;;;;;4452160;32;19967;-78
2023/01/02 03:00:07;;;;;;;;;;;;;;;;;;4450790;32;19944;-78
2023/01/02 03:02:32;;;;;;;;;;;;;;;;;;4450870;32;19937;-78
2023/01/02 03:04:57;;;;;;;;;;;;;;;;;;4450768;32;19962;-78
2023/01/02 03:07:22;;;;;;;;;;;;;;;;;;4450896;32;20333;-77
2023/01/02 03:09:47;;;;;;;;;;;;;;;;;;4452419;32;19944;-78
2023/01/02 03:12:13;;;;;;;;;;;;;;;;;;4435680;32;19983;-78
2023/01/02 03:14:38;;;;;;;;;;;;;;;;;;4435978;32;19936;-78
2023/01/02 03:17:03;;;;;;;;;;;;;;;;;;4450524;32;19933;-77
2023/01/02 03:19:28;;;;;;;;;;;;;;;;;;4450024;32;19964;-78
2023/01/02 03:21:53;;;;;;;;;;;;;;;;;;4450028;32;20199;-77
2023/01/02 03:24:18;;;;;;;;;;;;;;;;;;4450722;32;20350;-77
2023/01/02 03:26:43;;;;;;;;;;;;;;;;;;4451039;32;19951;-77
2023/01/02 03:29:08;;;;;;;;;;;;;;;;;;4450393;32;19964;-77
2023/01/02 03:31:33;;;;;;;;;;;;;;;;;;4460142;32;19937;-77
2023/01/02 03:33:58;;;;;;;;;;;;;;;;;;4456161;32;20363;-79
2023/01/02 03:36:24;;;;;;;;;;;;;;;;;;4454696;32;19974;-78
2023/01/02 03:38:49;;;;;;;;;;;;;;;;;;4451224;32;19963;-77
2023/01/02 03:41:14;;;;;;;;;;;;;;;;;;4450297;32;19956;-78
2023/01/02 03:43:39;;;;;;;;;;;;;;;;;;4450697;32;19968;-77
2023/01/02 03:46:04;;;;;;;;;;;;;;;;;;4450125;32;19936;-77
2023/01/02 03:48:29;;;;;;;;;;;;;;;;;;4440919;32;20127;-77
2023/01/02 03:50:54;;;;;;;;;;;;;;;;;;4452947;32;19973;-77
2023/01/02 03:53:19;;;;;;;;;;;;;;;;;;4450723;32;20028;-76
2023/01/02 03:55:44;;;;;;;;;;;;;;;;;;4450277;32;19936;-77
2023/01/02 03:58:09;;;;;;;;;;;;;;;;;;4436589;32;19994;-78
2023/01/02 04:00:35;;;;;;;;;;;;;;;;;;4451659;32;19933;-78
2023/01/02 04:03:00;;;;;;;;;;;;;;;;;;4450871;32;20329;-78
2023/01/02 04:05:25;;;;;;;;;;;;;;;;;;4450712;32;20366;-78
2023/01/02 04:07:50;;;;;;;;;;;;;;;;;;4453358;32;19932;-78
2023/01/02 04:10:15;;;;;;;;;;;;;;;;;;4439768;32;19976;-78
2023/01/02 04:12:40;;;;;;;;;;;;;;;;;;4454471;32;19940;-78
2023/01/02 04:15:05;;;;;;;;;;;;;;;;;;4454332;32;19933;-78
2023/01/02 04:17:30;;;;;;;;;;;;;;;;;;4455281;32;19947;-78
2023/01/02 04:19:55;;;;;;;;;;;;;;;;;;4454208;32;20346;-78
2023/01/02 04:22:20;;;;;;;;;;;;;;;;;;4454242;32;19982;-78
2023/01/02 04:24:46;;;;;;;;;;;;;;;;;;4454608;32;19951;-78
2023/01/02 04:27:11;;;;;;;;;;;;;;;;;;4454911;32;19954;-77
2023/01/02 04:29:36;;;;;;;;;;;;;;;;;;4452115;32;19974;-77
2023/01/02 04:32:01;;;;;;;;;;;;;;;;;;4452731;32;20032;-78
2023/01/02 04:34:26;;;;;;;;;;;;;;;;;;4454275;32;19967;-77
2023/01/02 04:36:52;;;;;;;;;;;;;;;;;;4453408;32;19936;-76
2023/01/02 04:39:17;;;;;;;;;;;;;;;;;;4452228;32;19956;-77
2023/01/02 04:41:42;;;;;;;;;;;;;;;;;;4453602;32;19969;-77
2023/01/02 04:44:07;;;;;;;;;;;;;;;;;;4453483;32;20055;-77
2023/01/02 04:46:32;;;;;;;;;;;;;;;;;;4453572;32;19959;-77
2023/01/02 04:48:57;;;;;;;;;;;;;;;;;;4454719;32;19972;-77
2023/01/02 04:51:22;;;;;;;;;;;;;;;;;;4453339;32;19933;-77
2023/01/02 04:53:47;;;;;;;;;;;;;;;;;;4456526;32;19973;-77
2023/01/02 04:56:12;;;;;;;;;;;;;;;;;;4455015;32;19937;-77
2023/01/02 04:58:37;;;;;;;;;;;;;;;;;;4453293;32;19973;-77
2023/01/02 05:01:03;;;;;;;;;;;;;;;;;;4452790;32;20133;-76
2023/01/02 05:03:28;;;;;;;;;;;;;;;;;;4447798;32;19945;-76
2023/01/02 05:05:53;;;;;;;;;;;;;;;;;;4452287;32;19932;-77
2023/01/02 05:08:18;;;;;;;;;;;;;;;;;;4451224;32;20013;-77
2023/01/02 05:10:43;;;;;;;;;;;;;;;;;;4452143;32;19932;-77
2023/01/02 05:13:08;;;;;;;;;;;;;;;;;;4451094;32;20094;-77
2023/01/02 05:15:33;;;;;;;;;;;;;;;;;;4451282;32;20282;-77
2023/01/02 05:17:58;;;;;;;;;;;;;;;;;;4452002;32;19987;-77
2023/01/02 05:20:23;;;;;;;;;;;;;;;;;;4451587;32;19948;-76
2023/01/02 05:25:33;;;;;;;;;;;;;;;;;;4452152;32;19973;-77
2023/01/02 05:27:58;;;;;;;;;;;;;;;;;;4452459;32;20346;-77
2023/01/02 05:30:23;;;;;;;;;;;;;;;;;;4452252;32;19944;-78
2023/01/02 05:32:48;;;;;;;;;;;;;;;;;;4450329;32;19972;-78
2023/01/02 05:35:13;;;;;;;;;;;;;;;;;;4449637;32;19944;-78
2023/01/02 05:37:38;;;;;;;;;;;;;;;;;;4450485;32;20099;-78
2023/01/02 05:40:03;;;;;;;;;;;;;;;;;;4451470;32;19951;-78
2023/01/02 05:42:28;;;;;;;;;;;;;;;;;;4450028;32;19936;-77
2023/01/02 05:44:53;;;;;;;;;;;;;;;;;;4451574;32;20597;-78
2023/01/02 05:47:19;;;;;;;;;;;;;;;;;;4436809;32;20062;-78
2023/01/02 05:49:44;;;;;;;;;;;;;;;;;;4450717;32;19974;-77
2023/01/02 05:52:09;;;;;;;;;;;;;;;;;;4437768;32;19978;-78
2023/01/02 05:54:34;;;;;;;;;;;;;;;;;;4453684;32;20358;-78
2023/01/02 05:56:59;;;;;;;;;;;;;;;;;;4437184;32;19979;-79
2023/01/02 05:59:24;;;;;;;;;;;;;;;;;;4453030;32;20274;-79
2023/01/02 06:01:49;;;;;;;;;;;;;;;;;;4451099;32;19990;-79
2023/01/02 06:04:14;;;;;;;;;;;;;;;;;;4452469;32;19936;-78
2023/01/02 06:06:39;;;;;;;;;;;;;;;;;;4451335;32;19995;-80
2023/01/02 06:09:04;;;;;;;;;;;;;;;;;;4450970;32;20243;-78
2023/01/02 06:11:30;;;;;;;;;;;;;;;;;;4451213;32;19937;-80
2023/01/02 06:13:55;;;;;;;;;;;;;;;;;;4452620;32;20033;-79
2023/01/02 06:16:20;;;;;;;;;;;;;;;;;;4452877;32;19947;-80
2023/01/02 06:18:45;;;;;;;;;;;;;;;;;;4451899;32;19955;-77
2023/01/02 06:21:10;;;;;;;;;;;;;;;;;;4452188;32;19940;-79
2023/01/02 06:23:35;;;;;;;;;;;;;;;;;;4450981;32;19940;-78
2023/01/02 06:26:00;;;;;;;;;;;;;;;;;;4450697;32;19936;-78
2023/01/02 06:28:25;;;;;;;;;;;;;;;;;;4440577;32;19996;-80
2023/01/02 06:30:50;;;;;;;;;;;;;;;;;;4450549;32;19941;-78
2023/01/02 06:33:16;;;;;;;;;;;;;;;;;;4451576;32;19947;-78
2023/01/02 06:35:41;;;;;;;;;;;;;;;;;;4450707;32;20259;-78
2023/01/02 06:38:06;;;;;;;;;;;;;;;;;;4450882;32;19955;-78
2023/01/02 06:40:31;;;;;;;;;;;;;;;;;;4451306;32;20339;-78
2023/01/02 06:42:56;;;;;;;;;;;;;;;;;;4436400;32;20400;-78
2023/01/02 06:45:22;;;;;;;;;;;;;;;;;;4435220;32;20325;-79
2023/01/02 06:47:48;;;;;;;;;;;;;;;;;;4434589;32;19933;-79
2023/01/02 06:50:13;;;;;;;;;;;;;;;;;;4449933;32;19954;-80
2023/01/02 06:52:38;;;;;;;;;;;;;;;;;;4450822;32;20318;-79
2023/01/02 06:55:04;;;;;;;;;;;;;;;;;;4451215;32;19940;-80
2023/01/02 06:57:29;;;;;;;;;;;;;;;;;;4450432;32;20379;-81
2023/01/02 06:59:54;;;;;;;;;;;;;;;;;;4435211;32;20008;-80
2023/01/02 07:02:19;;;;;;;;;;;;;;;;;;4435650;32;20264;-80
2023/01/02 07:04:45;;;;;;;;;;;;;;;;;;4435418;32;19958;-80
2023/01/02 07:07:10;;;;;;;;;;;;;;;;;;4436533;32;19937;-80
2023/01/02 07:09:35;;;;;;;;;;;;;;;;;;4449988;32;20287;-80
2023/01/02 07:12:00;;;;;;;;;;;;;;;;;;4450625;32;19966;-79
2023/01/02 07:14:25;;;;;;;;;;;;;;;;;;4451051;32;19936;-80
2023/01/02 07:16:50;;;;;;;;;;;;;;;;;;4450504;32;19936;-79
2023/01/02 07:19:15;;;;;;;;;;;;;;;;;;4435291;32;19943;-79
2023/01/02 07:21:40;;;;;;;;;;;;;;;;;;4435291;32;19995;-78
2023/01/02 07:24:05;;;;;;;;;;;;;;;;;;4450597;32;19936;-79
2023/01/02 07:26:31;;;;;;;;;;;;;;;;;;4448942;32;19989;-80
2023/01/02 07:28:56;;;;;;;;;;;;;;;;;;4435288;32;19952;-79
2023/01/02 07:31:21;;;;;;;;;;;;;;;;;;4435971;32;19947;-79
2023/01/02 07:33:46;;;;;;;;;;;;;;;;;;4450217;32;19941;-80
2023/01/02 07:36:11;;;;;;;;;;;;;;;;;;4437386;32;19937;-80
2023/01/02 07:38:38;;;;;;;;;;;;;;;;;;4437990;32;20316;-80
2023/01/02 07:41:03;;;;;;;;;;;;;;;;;;4451382;32;19981;-79
2023/01/02 07:43:28;;;;;;;;;;;;;;;;;;4438254;32;19937;-79
2023/01/02 07:45:53;;;;;;;;;;;;;;;;;;4452282;32;19974;-79
2023/01/02 07:48:18;;;;;;;;;;;;;;;;;;4451330;32;20099;-80
2023/01/02 07:50:43;;;;;;;;;;;;;;;;;;4437731;32;19945;-79
2023/01/02 07:53:08;;;;;;;;;;;;;;;;;;4438090;32;19936;-79
2023/01/02 07:55:33;;;;;;;;;;;;;;;;;;4451836;32;19956;-77
2023/01/02 07:57:58;;;;;;;;;;;;;;;;;;4452141;32;19947;-76
2023/01/02 08:00:23;;;;;;;;;;;;;;;;;;4451403;32;20048;-73
2023/01/02 08:02:48;;;;;;;;;;;;;;;;;;4436674;32;19944;-73
2023/01/02 08:05:14;;;;;;;;;;;;;;;;;;4451178;32;20263;-76
2023/01/02 08:07:39;;;;;;;;;;;;;;;;;;4450434;32;19960;-75
2023/01/02 08:10:04;;;;;;;;;;;;;;;;;;4451497;32;20020;-75
2023/01/02 08:12:29;;;;;;;;;;;;;;;;;;4437773;32;20040;-75
2023/01/02 08:14:54;;;;;;;;;;;;;;;;;;4436425;32;20003;-76
2023/01/02 08:17:19;;;;;;;;;;;;;;;;;;4452414;32;20353;-76
2023/01/02 08:19:44;;;;;;;;;;;;;;;;;;4451862;32;20227;-76
2023/01/02 08:22:09;;;;;;;;;;;;;;;;;;4452545;32;19991;-76
2023/01/02 08:24:34;;;;;;;;;;;;;;;;;;4437810;32;19937;-76
2023/01/02 08:26:59;;;;;;;;;;;;;;;;;;4451718;32;19975;-75
2023/01/02 08:29:25;;;;;;;;;;;;;;;;;;4452037;32;20238;-77
2023/01/02 08:31:50;;;;;;;;;;;;;;;;;;4450997;32;20004;-75
2023/01/02 08:34:16;;;;;;;;;;;;;;;;;;4437120;32;19993;-75
2023/01/02 08:36:41;;;;;;;;;;;;;;;;;;4451018;32;19991;-75
2023/01/02 08:39:06;;;;;;;;;;;;;;;;;;4451009;32;19987;-76
2023/01/02 08:41:31;;;;;;;;;;;;;;;;;;4438011;32;20353;-76
2023/01/02 08:43:56;;;;;;;;;;;;;;;;;;4452598;32;19995;-76
2023/01/02 08:46:21;;;;;;;;;;;;;;;;;;4453467;32;20019;-76
2023/01/02 08:48:47;;;;;;;;;;;;;;;;;;4438121;32;19970;-76
2023/01/02 08:51:12;;;;;;;;;;;;;;;;;;4452663;32;19977;-76
2023/01/02 08:53:37;;;;;;;;;;;;;;;;;;4438619;32;20265;-75
2023/01/02 08:56:02;;;;;;;;;;;;;;;;;;4455915;32;19941;-75
2023/01/02 08:58:27;;;;;;;;;;;;;;;;;;4442490;32;19948;-75
2023/01/02 09:00:52;;;;;;;;;;;;;;;;;;4454093;32;19941;-75
2023/01/02 09:03:17;;;;;;;;;;;;;;;;;;4452974;32;19948;-75
2023/01/02 09:05:42;;;;;;;;;;;;;;;;;;4452472;32;19947;-75
2023/01/02 09:08:08;;;;;;;;;;;;;;;;;;4452527;32;20023;-75
2023/01/02 09:10:33;;;;;;;;;;;;;;;;;;4439461;32;19932;-75
2023/01/02 09:12:58;;;;;;;;;;;;;;;;;;4452985;32;19960;-74
2023/01/02 09:15:23;;;;;;;;;;;;;;;;;;4454063;32;19947;-75
2023/01/02 09:17:48;;;;;;;;;;;;;;;;;;4453004;32;19945;-75
2023/01/02 09:20:13;;;;;;;;;;;;;;;;;;4452491;32;19948;-74
2023/01/02 09:22:39;;;;;;;;;;;;;;;;;;4452531;32;19936;-75
2023/01/02 09:25:04;;;;;;;;;;;;;;;;;;4452787;32;19948;-75
2023/01/02 09:27:29;;;;;;;;;;;;;;;;;;4453338;32;19982;-75
2023/01/02 09:29:55;;;;;;;;;;;;;;;;;;4453615;32;19951;-75
2023/01/02 09:32:20;;;;;;;;;;;;;;;;;;4454084;32;20322;-76
2023/01/02 09:34:49;;;;;;;;;;;;;;;;;;4453791;32;19970;-75
2023/01/02 09:37:15;;;;;;;;;;;;;;;;;;4453091;32;19973;-74
2023/01/02 09:39:40;;;;;;;;;;;;;;;;;;4453190;32;20280;-75
2023/01/02 09:42:07;;;;;;;;;;;;;;;;;;4453119;32;19973;-74
2023/01/02 09:44:32;;;;;;;;;;;;;;;;;;4439176;32;19940;-75
2023/01/02 09:46:59;;;;;;;;;;;;;;;;;;4453612;32;19969;-75
2023/01/02 09:49:24;;;;;;;;;;;;;;;;;;4452185;32;20302;-74
2023/01/02 09:51:49;;;;;;;;;;;;;;;;;;4452444;32;20345;-75
2023/01/02 09:54:14;;;;;;;;;;;;;;;;;;4453051;32;19932;-74
2023/01/02 09:56:39;;;;;;;;;;;;;;;;;;4452689;32;20020;-75
2023/01/02 09:59:04;;;;;;;;;;;;;;;;;;4453004;32;19940;-74
2023/01/02 10:01:29;;;;;;;;;;;;;;;;;;4453105;32;19982;-74
2023/01/02 10:03:54;;;;;;;;;;;;;;;;;;4453329;32;19947;-74
2023/01/02 10:06:20;;;;;;;;;;;;;;;;;;4454754;32;19964;-74
2023/01/02 10:08:45;;;;;;;;;;;;;;;;;;4451763;32;19940;-75
2023/01/02 10:11:10;;;;;;;;;;;;;;;;;;4453796;32;19936;-74
2023/01/02 10:13:35;;;;;;;;;;;;;;;;;;4453307;32;19932;-74
2023/01/02 10:16:00;;;;;;;;;;;;;;;;;;4453816;32;19969;-74
2023/01/02 10:18:25;;;;;;;;;;;;;;;;;;4458314;32;19937;-74
2023/01/02 10:20:50;;;;;;;;;;;;;;;;;;4452497;32;19952;-74
2023/01/02 10:23:15;;;;;;;;;;;;;;;;;;4453177;32;19947;-74
2023/01/02 10:25:41;;;;;;;;;;;;;;;;;;4451690;32;19937;-74
2023/01/02 10:28:06;;;;;;;;;;;;;;;;;;4452423;32;19946;-76
2023/01/02 10:30:31;;;;;;;;;;;;;;;;;;4450290;32;19962;-74
2023/01/02 10:32:56;;;;;;;;;;;;;;;;;;4452493;32;19944;-74
2023/01/02 10:35:21;;;;;;;;;;;;;;;;;;4451173;32;19940;-75
2023/01/02 10:37:46;;;;;;;;;;;;;;;;;;4451243;32;20000;-74
2023/01/02 10:40:12;;;;;;;;;;;;;;;;;;4452746;32;19947;-74
2023/01/02 10:42:37;;;;;;;;;;;;;;;;;;4452152;32;20349;-74
2023/01/02 10:45:02;;;;;;;;;;;;;;;;;;4451660;32;19952;-74
2023/01/02 10:47:27;;;;;;;;;;;;;;;;;;4452456;32;19936;-73
2023/01/02 10:49:53;;;;;;;;;;;;;;;;;;4438900;32;19970;-73
2023/01/02 10:52:18;;;;;;;;;;;;;;;;;;4451619;32;19953;-74
2023/01/02 10:54:43;;;;;;;;;;;;;;;;;;4452707;32;19932;-74
2023/01/02 10:57:08;;;;;;;;;;;;;;;;;;4437940;32;19937;-74
2023/01/02 10:59:33;;;;;;;;;;;;;;;;;;4452241;32;19937;-74
2023/01/02 11:01:58;;;;;;;;;;;;;;;;;;4452006;32;19973;-74
2023/01/02 11:04:23;;;;;;;;;;;;;;;;;;4450500;32;19944;-74
2023/01/02 11:06:49;;;;;;;;;;;;;;;;;;4451900;32;19969;-74
2023/01/02 11:09:14;;;;;;;;;;;;;;;;;;4453215;32;19936;-74
2023/01/02 11:11:39;;;;;;;;;;;;;;;;;;4451646;32;20019;-74
2023/01/02 11:14:04;;;;;;;;;;;;;;;;;;4451934;32;19932;-74
2023/01/02 11:16:30;;;;;;;;;;;;;;;;;;4449553;32;19976;-74
2023/01/02 11:18:55;;;;;;;;;;;;;;;;;;4445273;32;19928;-75
2023/01/02 11:21:20;;;;;;;;;;;;;;;;;;4451497;32;19940;-73
2023/01/02 11:23:46;;;;;;;;;;;;;;;;;;4451389;32;19978;-74
2023/01/02 11:26:11;;;;;;;;;;;;;;;;;;4452899;32;19932;-74
2023/01/02 11:28:36;;;;;;;;;;;;;;;;;;4453586;32;20080;-74
2023/01/02 11:31:01;;;;;;;;;;;;;;;;;;4437200;32;19980;-75
2023/01/02 11:33:27;;;;;;;;;;;;;;;;;;4439026;32;20363;-74
2023/01/02 11:35:52;;;;;;;;;;;;;;;;;;4451032;32;20318;-74
2023/01/02 11:38:17;;;;;;;;;;;;;;;;;;4452222;32;19962;-74
2023/01/02 11:40:42;;;;;;;;;;;;;;;;;;4453824;32;20314;-74
2023/01/02 11:45:51;;;;;;;;;;;;;;;;;;4452833;32;19935;-74
2023/01/02 11:48:16;;;;;;;;;;;;;;;;;;4451001;32;19941;-73
2023/01/02 11:50:41;;;;;;;;;;;;;;;;;;4451975;32;19969;-75
2023/01/02 11:53:06;;;;;;;;;;;;;;;;;;4451043;32;19969;-74
2023/01/02 11:55:33;;;;;;;;;;;;;;;;;;4450801;32;19995;-74
2023/01/02 11:57:58;;;;;;;;;;;;;;;;;;4450110;32;20346;-73
2023/01/02 12:00:24;;;;;;;;;;;;;;;;;;4450114;32;20284;-74
2023/01/02 12:02:49;;;;;;;;;;;;;;;;;;4449877;32;19936;-74
2023/01/02 12:05:14;;;;;;;;;;;;;;;;;;4451165;32;19944;-74
2023/01/02 12:07:39;;;;;;;;;;;;;;;;;;4450947;32;19932;-74
2023/01/02 12:10:04;;;;;;;;;;;;;;;;;;4451330;32;19951;-73
2023/01/02 12:12:29;;;;;;;;;;;;;;;;;;4451500;32;20408;-73
2023/01/02 12:14:54;;;;;;;;;;;;;;;;;;4451210;32;19960;-74
2023/01/02 12:17:19;;;;;;;;;;;;;;;;;;4450657;32;19963;-74
2023/01/02 12:19:44;;;;;;;;;;;;;;;;;;4451391;32;19933;-73
2023/01/02 12:22:10;;;;;;;;;;;;;;;;;;4452724;32;19972;-74
2023/01/02 12:24:35;;;;;;;;;;;;;;;;;;4450903;32;19933;-74
2023/01/02 12:27:00;;;;;;;;;;;;;;;;;;4449442;32;20297;-74
2023/01/02 12:29:25;;;;;;;;;;;;;;;;;;4438787;32;20184;-74
2023/01/02 12:31:50;;;;;;;;;;;;;;;;;;4449164;32;19951;-73
2023/01/02 12:34:15;;;;;;;;;;;;;;;;;;4454393;32;20263;-75
2023/01/02 12:36:40;;;;;;;;;;;;;;;;;;4453088;32;19968;-76
2023/01/02 12:39:05;;;;;;;;;;;;;;;;;;4453637;32;19980;-76
2023/01/02 12:41:31;;;;;;;;;;;;;;;;;;4452408;32;19948;-75
2023/01/02 12:43:56;;;;;;;;;;;;;;;;;;4452642;32;19980;-75
2023/01/02 12:46:21;;;;;;;;;;;;;;;;;;4453138;32;19988;-76
2023/01/02 12:48:46;;;;;;;;;;;;;;;;;;4451683;32;19951;-76
2023/01/02 12:51:11;;;;;;;;;;;;;;;;;;4451921;32;19941;-76
2023/01/02 12:53:36;;;;;;;;;;;;;;;;;;4452607;32;19932;-75
2023/01/02 12:56:01;;;;;;;;;;;;;;;;;;4452278;32;19937;-76
2023/01/02 12:58:26;;;;;;;;;;;;;;;;;;4450997;32;20393;-76
2023/01/02 13:00:52;;;;;;;;;;;;;;;;;;4437974;32;20265;-76
2023/01/02 13:03:17;;;;;;;;;;;;;;;;;;4451933;32;19940;-75
2023/01/02 13:05:42;;;;;;;;;;;;;;;;;;4450982;32;19932;-77
2023/01/02 13:08:07;;;;;;;;;;;;;;;;;;4451025;32;20282;-77
2023/01/02 13:10:32;;;;;;;;;;;;;;;;;;4437429;32;19962;-78
2023/01/02 13:12:57;;;;;;;;;;;;;;;;;;4451688;32;20015;-77
2023/01/02 13:15:22;;;;;;;;;;;;;;;;;;4451222;32;20024;-78
2023/01/02 13:17:47;;;;;;;;;;;;;;;;;;4451015;32;19993;-75
2023/01/02 13:20:13;;;;;;;;;;;;;;;;;;4450854;32;19972;-76
2023/01/02 13:22:38;;;;;;;;;;;;;;;;;;4450311;32;19976;-76
2023/01/02 13:25:03;;;;;;;;;;;;;;;;;;4450468;32;19990;-76
2023/01/02 13:27:28;;;;;;;;;;;;;;;;;;4437560;32;19952;-75
2023/01/02 13:29:53;;;;;;;;;;;;;;;;;;4437159;32;19991;-76
2023/01/02 13:32:18;;;;;;;;;;;;;;;;;;4450912;32;19944;-76
2023/01/02 13:34:43;;;;;;;;;;;;;;;;;;4437201;32;19943;-76
2023/01/02 13:37:08;;;;;;;;;;;;;;;;;;4450953;32;19961;-76
2023/01/02 13:39:33;;;;;;;;;;;;;;;;;;4450055;32;19991;-77
2023/01/02 13:44:42;;;;;;;;;;;;;;;;;;4451491;32;20334;-75
2023/01/02 13:47:07;;;;;;;;;;;;;;;;;;4435466;32;20329;-75
2023/01/02 13:49:32;;;;;;;;;;;;;;;;;;4441644;32;19960;-76
2023/01/02 13:51:58;;;;;;;;;;;;;;;;;;4438884;32;20361;-76
2023/01/02 13:54:23;;;;;;;;;;;;;;;;;;4436542;32;19937;-75
2023/01/02 13:56:48;;;;;;;;;;;;;;;;;;4451689;32;19968;-75
2023/01/02 13:59:14;;;;;;;;;;;;;;;;;;4447224;32;19996;-75
2023/01/02 14:01:39;;;;;;;;;;;;;;;;;;4435561;32;19944;-74
2023/01/02 14:04:04;;;;;;;;;;;;;;;;;;4438072;32;20270;-74
2023/01/02 14:06:29;;;;;;;;;;;;;;;;;;4437828;32;20351;-75
2023/01/02 14:08:54;;;;;;;;;;;;;;;;;;4452886;32;19947;-74
2023/01/02 14:11:19;;;;;;;;;;;;;;;;;;4443090;32;19933;-74
2023/01/02 14:13:45;;;;;;;;;;;;;;;;;;4435699;32;19993;-74
2023/01/02 14:16:10;;;;;;;;;;;;;;;;;;4435303;32;19972;-75
2023/01/02 14:18:35;;;;;;;;;;;;;;;;;;4436888;32;19967;-75
2023/01/02 14:21:00;;;;;;;;;;;;;;;;;;4435837;32;19951;-74
2023/01/02 14:23:25;;;;;;;;;;;;;;;;;;4437995;32;20372;-74
2023/01/02 14:25:50;;;;;;;;;;;;;;;;;;4435550;32;19979;-74
2023/01/02 14:28:16;;;;;;;;;;;;;;;;;;4436594;32;19932;-75
2023/01/02 14:30:41;;;;;;;;;;;;;;;;;;4435391;32;19947;-74
2023/01/02 14:33:06;;;;;;;;;;;;;;;;;;4436278;32;19975;-74
2023/01/02 14:35:31;;;;;;;;;;;;;;;;;;4435489;32;19975;-73
2023/01/02 14:37:56;;;;;;;;;;;;;;;;;;4437851;32;19932;-74
2023/01/02 14:40:21;;;;;;;;;;;;;;;;;;4436662;32;19933;-74
2023/01/02 14:45:31;;;;;;;;;;;;;;;;;;4440146;32;20349;-75
2023/01/02 14:47:56;;;;;;;;;;;;;;;;;;4439768;32;19933;-74
2023/01/02 14:50:21;;;;;;;;;;;;;;;;;;4446712;32;19970;-72
2023/01/02 14:52:46;;;;;;;;;;;;;;;;;;4451302;32;20298;-73
2023/01/02 14:55:11;;;;;;;;;;;;;;;;;;4452984;32;19952;-73
2023/01/02 14:57:36;;;;;;;;;;;;;;;;;;4449951;32;19940;-73
2023/01/02 15:00:01;;;;;;;;;;;;;;;;;;4440230;32;19951;-74
2023/01/02 15:02:26;;;;;;;;;;;;;;;;;;4436283;32;20029;-75
2023/01/02 15:04:52;;;;;;;;;;;;;;;;;;4434491;32;19963;-76
2023/01/02 15:07:17;;;;;;;;;;;;;;;;;;4434619;32;20281;-76
2023/01/02 15:09:42;;;;;;;;;;;;;;;;;;4435409;32;19947;-76
2023/01/02 15:14:51;;;;;;;;;;;;;;;;;;4436217;32;19985;-75
2023/01/02 15:17:16;;;;;;;;;;;;;;;;;;4436304;32;19945;-76
2023/01/02 15:19:41;;;;;;;;;;;;;;;;;;4443844;32;19937;-76
2023/01/02 15:22:06;;;;;;;;;;;;;;;;;;4436020;32;19941;-76
2023/01/02 15:24:33;;;;;;;;;;;;;;;;;;4435829;32;20000;-77
2023/01/02 15:26:58;;;;;;;;;;;;;;;;;;4443362;32;19941;-77
2023/01/02 15:29:23;;;;;;;;;;;;;;;;;;4434424;32;19940;-76
2023/01/02 15:31:48;;;;;;;;;;;;;;;;;;4443719;32;19944;-76
2023/01/02 15:34:13;;;;;;;;;;;;;;;;;;4434512;32;19956;-76
2023/01/02 15:36:39;;;;;;;;;;;;;;;;;;4434732;32;19944;-76
2023/01/02 15:39:04;;;;;;;;;;;;;;;;;;4435320;32;20375;-76
2023/01/02 15:41:29;;;;;;;;;;;;;;;;;;4440007;32;19944;-77
2023/01/02 15:46:58;;;;;;;;;;;;;;;;;;4396886;32;20012;-77
2023/01/02 15:49:23;;;;;;;;;;;;;;;;;;4395994;32;19950;-77
2023/01/02 15:51:49;;;;;;;;;;;;;;;;;;4413036;32;19956;-77
2023/01/02 15:54:14;;;;;;;;;;;;;;;;;;4430103;32;20375;-77
2023/01/02 15:56:39;;;;;;;;;;;;;;;;;;4424716;32;19964;-77
2023/01/02 15:59:05;;;;;;;;;;;;;;;;;;4428004;32;20072;-76
2023/01/02 16:01:30;;;;;;;;;;;;;;;;;;4427585;32;19985;-75
2023/01/02 16:03:55;;;;;;;;;;;;;;;;;;4430181;32;19993;-76
2023/01/02 16:06:20;;;;;;;;;;;;;;;;;;4430299;32;20348;-76
2023/01/02 16:08:45;;;;;;;;;;;;;;;;;;4434228;32;19941;-76
2023/01/02 16:11:10;;;;;;;;;;;;;;;;;;4430028;32;19937;-76
2023/01/02 16:16:19;;;;;;;;;;;;;;;;;;4430986;32;19939;-76
2023/01/02 16:18:44;;;;;;;;;;;;;;;;;;4434232;32;19940;-76
2023/01/02 16:21:09;;;;;;;;;;;;;;;;;;4429613;32;19983;-75
2023/01/02 16:23:35;;;;;;;;;;;;;;;;;;4432898;32;20030;-76
2023/01/02 16:26:03;;;;;;;;;;;;;;;;;;4431145;32;19997;-76
2023/01/02 16:28:28;;;;;;;;;;;;;;;;;;4427925;32;19941;-77
2023/01/02 16:30:53;;;;;;;;;;;;;;;;;;4428234;32;19956;-75
2023/01/02 16:33:18;;;;;;;;;;;;;;;;;;4427544;32;20058;-75
2023/01/02 16:35:44;;;;;;;;;;;;;;;;;;4429697;32;20278;-76
2023/01/02 16:38:09;;;;;;;;;;;;;;;;;;4427593;32;19988;-75
2023/01/02 16:40:34;;;;;;;;;;;;;;;;;;4429060;32;19981;-76
2023/01/02 16:43:05;;;;;;;;;;;;;;;;;;4428633;32;19945;-75
2023/01/02 16:45:30;;;;;;;;;;;;;;;;;;4427072;32;20043;-75
2023/01/02 16:47:55;;;;;;;;;;;;;;;;;;4430757;32;19971;-76
2023/01/02 16:50:26;;;;;;;;;;;;;;;;;;4440518;32;20009;-76